RYR64YL EDDK-LOWW
Flight info
| Callsign | RYR64YL |
|---|---|
| Flight time | 1h 13m |
| Altitude | 35000 |
| Route | KUMIK2Q KUMIK L603 TESGA DCT ESATI DCT BARSU DCT EKSOS DCT LULAR DCT RUDAP DCT BUDEX BUDEX2W |
| Aircraft | B738/M-SDE2E3FGHIRWXY/LB1 |
Departure
| Time | 2026-05-01 13:09 |
|---|---|
| Airport | Cologne Bonn Airport (EDDK) |
Arrival
| Time | 2026-05-01 14:22 |
|---|---|
| Airport | Vienna International Airport (LOWW) |
| Time | Latitude | Longitude | Altitude | Speed | Heading |
|---|---|---|---|---|---|
| 2026-05-01 12:44 | 50.88245 | 7.11815 | 233 ft | 0 kts | 186° |
| 2026-05-01 13:01 | 50.88265 | 7.11819 | 231 ft | 2 kts | 186° |
| 2026-05-01 13:01 | 50.88300 | 7.11793 | 234 ft | 4 kts | 84° |
| 2026-05-01 13:02 | 50.88294 | 7.11753 | 233 ft | 4 kts | 73° |
| 2026-05-01 13:07 | 50.87988 | 7.12640 | 232 ft | 12 kts | 98° |
| 2026-05-01 13:07 | 50.88000 | 7.12766 | 236 ft | 11 kts | 74° |
| 2026-05-01 13:07 | 50.88010 | 7.12889 | 238 ft | 12 kts | 95° |
| 2026-05-01 13:08 | 50.87976 | 7.13006 | 238 ft | 13 kts | 128° |
| 2026-05-01 13:08 | 50.87862 | 7.13177 | 238 ft | 45 kts | 137° |
| 2026-05-01 13:08 | 50.87475 | 7.13736 | 239 ft | 103 kts | 137° |
| 2026-05-01 13:08 | 50.86827 | 7.14665 | 270 ft | 145 kts | 138° |
| 2026-05-01 13:09 | 50.86037 | 7.15778 | 646 ft | 154 kts | 138° |
| 2026-05-01 13:09 | 50.85212 | 7.16947 | 1118 ft | 164 kts | 137° |
| 2026-05-01 13:09 | 50.84372 | 7.18134 | 1825 ft | 160 kts | 138° |
| 2026-05-01 13:09 | 50.83504 | 7.19347 | 2273 ft | 177 kts | 139° |
| 2026-05-01 13:10 | 50.82538 | 7.20707 | 2697 ft | 188 kts | 135° |
| 2026-05-01 13:10 | 50.81760 | 7.22382 | 3224 ft | 190 kts | 118° |
| 2026-05-01 13:10 | 50.81399 | 7.24464 | 3603 ft | 205 kts | 101° |
| 2026-05-01 13:10 | 50.81205 | 7.26797 | 3843 ft | 222 kts | 101° |
| 2026-05-01 13:11 | 50.80989 | 7.29329 | 4072 ft | 245 kts | 101° |
| 2026-05-01 13:11 | 50.80752 | 7.32077 | 4575 ft | 256 kts | 101° |
| 2026-05-01 13:11 | 50.80512 | 7.34874 | 5224 ft | 263 kts | 102° |
| 2026-05-01 13:11 | 50.80263 | 7.37756 | 5927 ft | 265 kts | 102° |
| 2026-05-01 13:12 | 50.80005 | 7.40657 | 6673 ft | 268 kts | 101° |
| 2026-05-01 13:12 | 50.79751 | 7.43582 | 7419 ft | 268 kts | 101° |
| 2026-05-01 13:12 | 50.79496 | 7.46527 | 8130 ft | 272 kts | 101° |
| 2026-05-01 13:12 | 50.79234 | 7.49508 | 8872 ft | 275 kts | 102° |
| 2026-05-01 13:13 | 50.78964 | 7.52527 | 9608 ft | 280 kts | 100° |
| 2026-05-01 13:13 | 50.78694 | 7.55559 | 10477 ft | 278 kts | 100° |
| 2026-05-01 13:13 | 50.78425 | 7.58643 | 10950 ft | 293 kts | 98° |
| 2026-05-01 13:13 | 50.78526 | 7.62000 | 11148 ft | 319 kts | 83° |
| 2026-05-01 13:14 | 50.78939 | 7.65523 | 11623 ft | 330 kts | 83° |
| 2026-05-01 13:14 | 50.79376 | 7.69112 | 12337 ft | 334 kts | 82° |
| 2026-05-01 13:14 | 50.79811 | 7.72740 | 13081 ft | 338 kts | 81° |
| 2026-05-01 13:14 | 50.80239 | 7.76408 | 13888 ft | 339 kts | 82° |
| 2026-05-01 13:15 | 50.80657 | 7.80071 | 14743 ft | 338 kts | 82° |
| 2026-05-01 13:15 | 50.81065 | 7.83706 | 15438 ft | 343 kts | 82° |
| 2026-05-01 13:15 | 50.81482 | 7.87454 | 16115 ft | 347 kts | 82° |
| 2026-05-01 13:15 | 50.81897 | 7.91212 | 16925 ft | 348 kts | 82° |
| 2026-05-01 13:16 | 50.82314 | 7.95004 | 17573 ft | 354 kts | 82° |
| 2026-05-01 13:16 | 50.82738 | 7.98878 | 18145 ft | 361 kts | 82° |
| 2026-05-01 13:16 | 50.83164 | 8.02812 | 18850 ft | 362 kts | 83° |
| 2026-05-01 13:17 | 50.81038 | 8.13893 | 20890 ft | 361 kts | 123° |
| 2026-05-01 13:17 | 50.79602 | 8.17219 | 21297 ft | 371 kts | 124° |
| 2026-05-01 13:18 | 50.76646 | 8.24001 | 22273 ft | 383 kts | 123° |
| 2026-05-01 13:18 | 50.75174 | 8.27437 | 22918 ft | 383 kts | 123° |
| 2026-05-01 13:18 | 50.73680 | 8.30956 | 23547 ft | 384 kts | 123° |
| 2026-05-01 13:18 | 50.72191 | 8.34467 | 24075 ft | 388 kts | 123° |
| 2026-05-01 13:19 | 50.70615 | 8.37973 | 24361 ft | 396 kts | 130° |
| 2026-05-01 13:19 | 50.68661 | 8.41048 | 24814 ft | 401 kts | 139° |
| 2026-05-01 13:19 | 50.63877 | 8.45736 | 25591 ft | 410 kts | 150° |
| 2026-05-01 13:20 | 50.61337 | 8.47821 | 25959 ft | 413 kts | 150° |
| 2026-05-01 13:20 | 50.58780 | 8.49918 | 26338 ft | 417 kts | 151° |
| 2026-05-01 13:20 | 50.56200 | 8.52056 | 26703 ft | 420 kts | 151° |
| 2026-05-01 13:21 | 50.50990 | 8.56425 | 27408 ft | 427 kts | 150° |
| 2026-05-01 13:21 | 50.48360 | 8.58638 | 27790 ft | 430 kts | 150° |
| 2026-05-01 13:21 | 50.45724 | 8.60882 | 28158 ft | 432 kts | 148° |
| 2026-05-01 13:21 | 50.43285 | 8.63539 | 28482 ft | 434 kts | 138° |
| 2026-05-01 13:22 | 50.41074 | 8.66780 | 28812 ft | 436 kts | 135° |
| 2026-05-01 13:22 | 50.38902 | 8.70121 | 29159 ft | 438 kts | 134° |
| 2026-05-01 13:22 | 50.36719 | 8.73492 | 29467 ft | 442 kts | 134° |
| 2026-05-01 13:22 | 50.34514 | 8.76874 | 29774 ft | 444 kts | 135° |
| 2026-05-01 13:23 | 50.32292 | 8.80251 | 30142 ft | 446 kts | 134° |
| 2026-05-01 13:23 | 50.30052 | 8.83630 | 30491 ft | 447 kts | 134° |
| 2026-05-01 13:23 | 50.27806 | 8.87001 | 30845 ft | 447 kts | 135° |
| 2026-05-01 13:23 | 50.25575 | 8.90339 | 31418 ft | 442 kts | 135° |
| 2026-05-01 13:24 | 50.23355 | 8.93656 | 31741 ft | 443 kts | 135° |
| 2026-05-01 13:24 | 50.21121 | 8.96988 | 32086 ft | 443 kts | 135° |
| 2026-05-01 13:24 | 50.18895 | 9.00306 | 32573 ft | 440 kts | 135° |
| 2026-05-01 13:25 | 50.14448 | 9.06928 | 33075 ft | 445 kts | 135° |
| 2026-05-01 13:25 | 50.12246 | 9.10199 | 33569 ft | 440 kts | 135° |
| 2026-05-01 13:25 | 50.09997 | 9.13534 | 33928 ft | 441 kts | 135° |
| 2026-05-01 13:25 | 50.07949 | 9.17016 | 34082 ft | 443 kts | 123° |
| 2026-05-01 13:26 | 50.06415 | 9.21170 | 34400 ft | 440 kts | 111° |
| 2026-05-01 13:26 | 50.05440 | 9.25632 | 34810 ft | 434 kts | 100° |
| 2026-05-01 13:26 | 50.04895 | 9.30238 | 35111 ft | 432 kts | 98° |
| 2026-05-01 13:26 | 50.04399 | 9.34852 | 35262 ft | 432 kts | 98° |
| 2026-05-01 13:27 | 50.03910 | 9.39465 | 35328 ft | 434 kts | 98° |
| 2026-05-01 13:27 | 50.02353 | 9.53611 | 35360 ft | 450 kts | 99° |
| 2026-05-01 13:28 | 50.00671 | 9.68146 | 35350 ft | 461 kts | 99° |
| 2026-05-01 13:29 | 49.98343 | 9.87879 | 35347 ft | 465 kts | 98° |
| 2026-05-01 13:31 | 49.94792 | 10.17447 | 35354 ft | 462 kts | 99° |
| 2026-05-01 13:32 | 49.91598 | 10.41697 | 35349 ft | 461 kts | 108° |
| 2026-05-01 13:33 | 49.85516 | 10.64701 | 35382 ft | 462 kts | 110° |
| 2026-05-01 13:34 | 49.83100 | 10.73910 | 35902 ft | 459 kts | 110° |
| 2026-05-01 13:34 | 49.80713 | 10.83050 | 36397 ft | 458 kts | 110° |
| 2026-05-01 13:35 | 49.78315 | 10.92196 | 36849 ft | 457 kts | 110° |
| 2026-05-01 13:35 | 49.77136 | 10.96678 | 37212 ft | 454 kts | 110° |
| 2026-05-01 13:35 | 49.74740 | 11.05757 | 37354 ft | 457 kts | 110° |
| 2026-05-01 13:36 | 49.73534 | 11.10313 | 37342 ft | 457 kts | 110° |
| 2026-05-01 13:36 | 49.69927 | 11.23885 | 37096 ft | 458 kts | 110° |
| 2026-05-01 13:37 | 49.68714 | 11.28431 | 36850 ft | 456 kts | 110° |
| 2026-05-01 13:37 | 49.67915 | 11.31425 | 36671 ft | 455 kts | 110° |
| 2026-05-01 13:37 | 49.66299 | 11.37458 | 36344 ft | 455 kts | 110° |
| 2026-05-01 13:37 | 49.65119 | 11.41983 | 36108 ft | 454 kts | 107° |
| 2026-05-01 13:38 | 49.63134 | 11.51218 | 35622 ft | 453 kts | 105° |
| 2026-05-01 13:38 | 49.62202 | 11.55866 | 35444 ft | 453 kts | 105° |
| 2026-05-01 13:39 | 49.60321 | 11.65179 | 35409 ft | 457 kts | 105° |
| 2026-05-01 13:39 | 49.58403 | 11.74444 | 35392 ft | 455 kts | 105° |
| 2026-05-01 13:40 | 49.56458 | 11.83700 | 35400 ft | 452 kts | 105° |
| 2026-05-01 13:40 | 49.54513 | 11.92894 | 35404 ft | 449 kts | 105° |
| 2026-05-01 13:41 | 49.52574 | 12.02026 | 35402 ft | 448 kts | 105° |
| 2026-05-01 13:41 | 49.50628 | 12.11156 | 35401 ft | 448 kts | 105° |
| 2026-05-01 13:42 | 49.48688 | 12.20218 | 35399 ft | 449 kts | 105° |
| 2026-05-01 13:42 | 49.46726 | 12.29345 | 35386 ft | 450 kts | 105° |
| 2026-05-01 13:43 | 49.44747 | 12.38506 | 35386 ft | 451 kts | 105° |
| 2026-05-01 13:43 | 49.42763 | 12.47652 | 35383 ft | 452 kts | 105° |
| 2026-05-01 13:44 | 49.40765 | 12.56818 | 35384 ft | 453 kts | 106° |
| 2026-05-01 13:44 | 49.39099 | 12.64436 | 35386 ft | 453 kts | 105° |
| 2026-05-01 13:45 | 49.37091 | 12.73585 | 35389 ft | 452 kts | 105° |
| 2026-05-01 13:45 | 49.34989 | 12.82669 | 35389 ft | 452 kts | 107° |
| 2026-05-01 13:46 | 49.32750 | 12.91693 | 35374 ft | 452 kts | 108° |
| 2026-05-01 13:46 | 49.30513 | 13.00711 | 35388 ft | 452 kts | 108° |
| 2026-05-01 13:47 | 49.28304 | 13.09672 | 35372 ft | 452 kts | 108° |
| 2026-05-01 13:47 | 49.26083 | 13.18667 | 35383 ft | 452 kts | 108° |
| 2026-05-01 13:48 | 49.23850 | 13.27654 | 35374 ft | 452 kts | 108° |
| 2026-05-01 13:48 | 49.21488 | 13.36572 | 35387 ft | 452 kts | 109° |
| 2026-05-01 13:49 | 49.19066 | 13.45449 | 35388 ft | 453 kts | 109° |
| 2026-05-01 13:49 | 49.16651 | 13.54327 | 35385 ft | 452 kts | 109° |
| 2026-05-01 13:50 | 49.14254 | 13.63152 | 35373 ft | 452 kts | 109° |
| 2026-05-01 13:50 | 49.11845 | 13.72009 | 35376 ft | 451 kts | 109° |
| 2026-05-01 13:51 | 49.09431 | 13.80847 | 35401 ft | 451 kts | 109° |
| 2026-05-01 13:51 | 49.07008 | 13.89686 | 35388 ft | 451 kts | 109° |
| 2026-05-01 13:52 | 49.04580 | 13.98504 | 35372 ft | 451 kts | 109° |
| 2026-05-01 13:52 | 49.02145 | 14.07317 | 35384 ft | 450 kts | 109° |
| 2026-05-01 13:53 | 48.99705 | 14.16121 | 35380 ft | 450 kts | 109° |
| 2026-05-01 13:53 | 48.96049 | 14.29250 | 35382 ft | 450 kts | 108° |
| 2026-05-01 13:54 | 48.93095 | 14.37724 | 34897 ft | 464 kts | 122° |
| 2026-05-01 13:54 | 48.91118 | 14.41588 | 34295 ft | 463 kts | 124° |
| 2026-05-01 13:54 | 48.89088 | 14.45376 | 33617 ft | 461 kts | 124° |
| 2026-05-01 13:55 | 48.87070 | 14.49156 | 32840 ft | 461 kts | 124° |
| 2026-05-01 13:55 | 48.85076 | 14.52962 | 32112 ft | 460 kts | 123° |
| 2026-05-01 13:55 | 48.83104 | 14.56799 | 31362 ft | 460 kts | 123° |
| 2026-05-01 13:55 | 48.81143 | 14.60655 | 30632 ft | 461 kts | 122° |
| 2026-05-01 13:56 | 48.79185 | 14.64519 | 29710 ft | 463 kts | 122° |
| 2026-05-01 13:56 | 48.77217 | 14.68399 | 28816 ft | 463 kts | 122° |
| 2026-05-01 13:56 | 48.75273 | 14.72222 | 27928 ft | 463 kts | 122° |
| 2026-05-01 13:56 | 48.73301 | 14.76085 | 27172 ft | 461 kts | 122° |
| 2026-05-01 13:57 | 48.71354 | 14.79886 | 26610 ft | 453 kts | 123° |
| 2026-05-01 13:57 | 48.69429 | 14.83635 | 26030 ft | 448 kts | 123° |
| 2026-05-01 13:57 | 48.67531 | 14.87331 | 25468 ft | 442 kts | 123° |
| 2026-05-01 13:57 | 48.65654 | 14.90984 | 24904 ft | 437 kts | 123° |
| 2026-05-01 13:58 | 48.63797 | 14.94599 | 24372 ft | 431 kts | 122° |
| 2026-05-01 13:58 | 48.61963 | 14.98162 | 23767 ft | 428 kts | 122° |
| 2026-05-01 13:58 | 48.60141 | 15.01696 | 23137 ft | 423 kts | 122° |
| 2026-05-01 13:58 | 48.58633 | 15.05410 | 22532 ft | 408 kts | 106° |
| 2026-05-01 13:59 | 48.57885 | 15.09460 | 22027 ft | 396 kts | 99° |
| 2026-05-01 13:59 | 48.57237 | 15.13490 | 21464 ft | 393 kts | 99° |
| 2026-05-01 13:59 | 48.56587 | 15.17428 | 20934 ft | 389 kts | 99° |
| 2026-05-01 13:59 | 48.55919 | 15.21379 | 20416 ft | 388 kts | 100° |
| 2026-05-01 14:00 | 48.55236 | 15.25380 | 19898 ft | 399 kts | 100° |
| 2026-05-01 14:00 | 48.54531 | 15.29465 | 19354 ft | 401 kts | 101° |
| 2026-05-01 14:00 | 48.53827 | 15.33511 | 18822 ft | 396 kts | 101° |
| 2026-05-01 14:00 | 48.53127 | 15.37523 | 18200 ft | 392 kts | 101° |
| 2026-05-01 14:01 | 48.52435 | 15.41477 | 17625 ft | 387 kts | 101° |
| 2026-05-01 14:01 | 48.51823 | 15.45390 | 17240 ft | 376 kts | 95° |
| 2026-05-01 14:01 | 48.51558 | 15.49176 | 17087 ft | 364 kts | 90° |
| 2026-05-01 14:01 | 48.51411 | 15.53078 | 16933 ft | 380 kts | 89° |
| 2026-05-01 14:02 | 48.51254 | 15.57084 | 16737 ft | 384 kts | 90° |
| 2026-05-01 14:02 | 48.51054 | 15.61087 | 16536 ft | 381 kts | 91° |
| 2026-05-01 14:02 | 48.50832 | 15.65051 | 16353 ft | 378 kts | 91° |
| 2026-05-01 14:02 | 48.50601 | 15.68998 | 16173 ft | 377 kts | 91° |
| 2026-05-01 14:03 | 48.50370 | 15.72930 | 15987 ft | 376 kts | 91° |
| 2026-05-01 14:03 | 48.50138 | 15.76850 | 15827 ft | 375 kts | 91° |
| 2026-05-01 14:03 | 48.49907 | 15.80757 | 15644 ft | 374 kts | 91° |
| 2026-05-01 14:03 | 48.49675 | 15.84668 | 15458 ft | 374 kts | 91° |
| 2026-05-01 14:04 | 48.49443 | 15.88578 | 15272 ft | 373 kts | 91° |
| 2026-05-01 14:04 | 48.49212 | 15.92424 | 15101 ft | 372 kts | 91° |
| 2026-05-01 14:04 | 48.48979 | 15.96309 | 14923 ft | 372 kts | 91° |
| 2026-05-01 14:04 | 48.48744 | 16.00191 | 14737 ft | 371 kts | 91° |
| 2026-05-01 14:05 | 48.48509 | 16.04065 | 14567 ft | 370 kts | 91° |
| 2026-05-01 14:05 | 48.48272 | 16.07926 | 14385 ft | 369 kts | 91° |
| 2026-05-01 14:05 | 48.48048 | 16.11767 | 14200 ft | 365 kts | 90° |
| 2026-05-01 14:05 | 48.47888 | 16.15558 | 13999 ft | 361 kts | 89° |
| 2026-05-01 14:06 | 48.47755 | 16.19342 | 13847 ft | 363 kts | 89° |
| 2026-05-01 14:06 | 48.47624 | 16.23161 | 13653 ft | 365 kts | 89° |
| 2026-05-01 14:06 | 48.47485 | 16.26971 | 13469 ft | 363 kts | 89° |
| 2026-05-01 14:06 | 48.47341 | 16.30760 | 13287 ft | 361 kts | 89° |
| 2026-05-01 14:07 | 48.47194 | 16.34531 | 13114 ft | 360 kts | 89° |
| 2026-05-01 14:07 | 48.47045 | 16.38293 | 12938 ft | 359 kts | 90° |
| 2026-05-01 14:07 | 48.46894 | 16.42055 | 12767 ft | 359 kts | 90° |
| 2026-05-01 14:08 | 48.46545 | 16.49544 | 12449 ft | 357 kts | 96° |
| 2026-05-01 14:08 | 48.45615 | 16.52970 | 12333 ft | 357 kts | 121° |
| 2026-05-01 14:08 | 48.43948 | 16.55693 | 12057 ft | 354 kts | 134° |
| 2026-05-01 14:08 | 48.41954 | 16.57849 | 11650 ft | 352 kts | 146° |
| 2026-05-01 14:09 | 48.39699 | 16.59209 | 11253 ft | 346 kts | 159° |
| 2026-05-01 14:09 | 48.37440 | 16.60151 | 10868 ft | 336 kts | 160° |
| 2026-05-01 14:09 | 48.35214 | 16.61029 | 10469 ft | 326 kts | 160° |
| 2026-05-01 14:09 | 48.33051 | 16.61904 | 10016 ft | 318 kts | 160° |
| 2026-05-01 14:10 | 48.30968 | 16.62767 | 9906 ft | 300 kts | 160° |
| 2026-05-01 14:10 | 48.28993 | 16.63593 | 9583 ft | 296 kts | 160° |
| 2026-05-01 14:10 | 48.27023 | 16.64424 | 9373 ft | 291 kts | 160° |
| 2026-05-01 14:10 | 48.25095 | 16.65234 | 9178 ft | 285 kts | 160° |
| 2026-05-01 14:11 | 48.23195 | 16.66032 | 9001 ft | 282 kts | 160° |
| 2026-05-01 14:11 | 48.19420 | 16.67616 | 8672 ft | 281 kts | 161° |
| 2026-05-01 14:11 | 48.17536 | 16.68406 | 8516 ft | 280 kts | 161° |
| 2026-05-01 14:12 | 48.15679 | 16.69183 | 8359 ft | 280 kts | 161° |
| 2026-05-01 14:12 | 48.13828 | 16.69957 | 8208 ft | 280 kts | 161° |
| 2026-05-01 14:12 | 48.11948 | 16.70742 | 8044 ft | 280 kts | 161° |
| 2026-05-01 14:12 | 48.10062 | 16.71529 | 7883 ft | 281 kts | 161° |
| 2026-05-01 14:13 | 48.08179 | 16.72313 | 7726 ft | 281 kts | 162° |
| 2026-05-01 14:13 | 48.06929 | 16.72833 | 7611 ft | 282 kts | 162° |
| 2026-05-01 14:13 | 48.04401 | 16.73884 | 7408 ft | 282 kts | 162° |
| 2026-05-01 14:13 | 48.02506 | 16.74670 | 7247 ft | 283 kts | 162° |
| 2026-05-01 14:14 | 48.00605 | 16.75460 | 7080 ft | 282 kts | 162° |
| 2026-05-01 14:14 | 47.98712 | 16.76245 | 6927 ft | 282 kts | 162° |
| 2026-05-01 14:14 | 47.96828 | 16.77025 | 6759 ft | 280 kts | 162° |
| 2026-05-01 14:14 | 47.94961 | 16.77798 | 6580 ft | 277 kts | 163° |
| 2026-05-01 14:15 | 47.93116 | 16.78560 | 6421 ft | 274 kts | 163° |
| 2026-05-01 14:15 | 47.91283 | 16.79316 | 6270 ft | 273 kts | 163° |
| 2026-05-01 14:15 | 47.89405 | 16.79754 | 6088 ft | 276 kts | 185° |
| 2026-05-01 14:15 | 47.87615 | 16.78849 | 5906 ft | 272 kts | 216° |
| 2026-05-01 14:16 | 47.86373 | 16.76882 | 5638 ft | 259 kts | 243° |
| 2026-05-01 14:16 | 47.85721 | 16.74455 | 5390 ft | 248 kts | 257° |
| 2026-05-01 14:16 | 47.85509 | 16.71988 | 5128 ft | 235 kts | 285° |
| 2026-05-01 14:16 | 47.86256 | 16.69983 | 4965 ft | 221 kts | 324° |
| 2026-05-01 14:17 | 47.87574 | 16.68885 | 4943 ft | 217 kts | 336° |
| 2026-05-01 14:17 | 47.88984 | 16.67936 | 4660 ft | 225 kts | 338° |
| 2026-05-01 14:17 | 47.90435 | 16.67054 | 4360 ft | 226 kts | 342° |
| 2026-05-01 14:17 | 47.91930 | 16.66325 | 4057 ft | 227 kts | 345° |
| 2026-05-01 14:18 | 47.93440 | 16.65673 | 3758 ft | 224 kts | 346° |
| 2026-05-01 14:18 | 47.94922 | 16.65047 | 3453 ft | 219 kts | 346° |
| 2026-05-01 14:18 | 47.96344 | 16.64446 | 3173 ft | 204 kts | 345° |
| 2026-05-01 14:18 | 47.97225 | 16.64073 | 2976 ft | 194 kts | 345° |
| 2026-05-01 14:19 | 47.98885 | 16.63366 | 2677 ft | 179 kts | 346° |
| 2026-05-01 14:19 | 48.00061 | 16.62868 | 2414 ft | 170 kts | 346° |
| 2026-05-01 14:19 | 48.01160 | 16.62403 | 2190 ft | 158 kts | 345° |
| 2026-05-01 14:19 | 48.02172 | 16.61973 | 1984 ft | 146 kts | 346° |
| 2026-05-01 14:20 | 48.03111 | 16.61573 | 1836 ft | 133 kts | 346° |
| 2026-05-01 14:20 | 48.04896 | 16.60818 | 1461 ft | 129 kts | 347° |
| 2026-05-01 14:20 | 48.05763 | 16.60471 | 1237 ft | 131 kts | 345° |
| 2026-05-01 14:21 | 48.06620 | 16.60076 | 1093 ft | 131 kts | 344° |
| 2026-05-01 14:21 | 48.07508 | 16.59701 | 921 ft | 134 kts | 346° |
| 2026-05-01 14:21 | 48.08400 | 16.59335 | 732 ft | 131 kts | 345° |
| 2026-05-01 14:22 | 48.09951 | 16.58680 | 618 ft | 78 kts | 344° |
| 2026-05-01 14:22 | 48.10424 | 16.58478 | 615 ft | 56 kts | 345° |
| 2026-05-01 14:22 | 48.10663 | 16.58353 | 611 ft | 25 kts | 329° |
| 2026-05-01 14:22 | 48.10791 | 16.58186 | 620 ft | 24 kts | 314° |
| 2026-05-01 14:23 | 48.10904 | 16.58015 | 608 ft | 23 kts | 315° |
| 2026-05-01 14:23 | 48.11012 | 16.57849 | 617 ft | 22 kts | 313° |
| 2026-05-01 14:23 | 48.11086 | 16.57654 | 619 ft | 21 kts | 296° |
| 2026-05-01 14:23 | 48.11150 | 16.57456 | 618 ft | 21 kts | 296° |
| 2026-05-01 14:24 | 48.11212 | 16.57265 | 608 ft | 20 kts | 296° |
| 2026-05-01 14:24 | 48.11267 | 16.57098 | 614 ft | 9 kts | 296° |
| 2026-05-01 14:24 | 48.11312 | 16.57058 | 610 ft | 8 kts | 2° |
| 2026-05-01 14:24 | 48.11365 | 16.57086 | 616 ft | 8 kts | 25° |
| 2026-05-01 14:25 | 48.11415 | 16.57122 | 612 ft | 8 kts | 26° |
| 2026-05-01 14:25 | 48.11463 | 16.57156 | 623 ft | 8 kts | 25° |
| 2026-05-01 14:25 | 48.11505 | 16.57143 | 613 ft | 7 kts | 293° |
| 2026-05-01 14:25 | 48.11531 | 16.57066 | 619 ft | 10 kts | 297° |
| 2026-05-01 14:26 | 48.11566 | 16.56957 | 614 ft | 13 kts | 296° |
| 2026-05-01 14:26 | 48.11585 | 16.56828 | 616 ft | 4 kts | 221° |
| 2026-05-01 14:26 | 48.11554 | 16.56801 | 613 ft | 6 kts | 205° |
| 2026-05-01 14:27 | 48.11539 | 16.56790 | 615 ft | 0 kts | 205° |